createdAt,value
2022-12-11T00:03:21.678Z,-1.67
2022-12-11T00:08:28.849Z,-1.68
2022-12-11T00:13:36.043Z,-1.68
2022-12-11T00:18:43.150Z,-1.67
2022-12-11T00:23:51.395Z,-1.69
2022-12-11T00:28:59.252Z,-1.72
2022-12-11T00:34:04.775Z,-1.78
2022-12-11T00:39:11.885Z,-1.85
2022-12-11T00:44:19.155Z,-1.90
2022-12-11T00:49:26.514Z,-1.93
2022-12-11T00:54:34.972Z,-1.96
2022-12-11T00:59:42.557Z,-1.93
2022-12-11T01:04:49.661Z,-1.83
2022-12-11T01:10:14.573Z,-1.72
2022-12-11T01:15:23.109Z,-1.67
2022-12-11T01:20:31.146Z,-1.69
2022-12-11T01:25:39.335Z,-1.71
2022-12-11T01:30:46.383Z,-1.74
2022-12-11T01:35:53.382Z,-1.78
2022-12-11T01:41:00.410Z,-1.85
2022-12-11T01:46:07.693Z,-1.95
2022-12-11T01:51:15.328Z,-2.04
2022-12-11T01:56:25.250Z,-2.07
2022-12-11T02:01:36.742Z,-2.07
2022-12-11T02:06:46.876Z,-2.02
2022-12-11T02:12:02.655Z,-1.93
2022-12-11T02:17:16.049Z,-1.91
2022-12-11T02:22:45.390Z,-1.96
2022-12-11T02:27:59.774Z,-2.06
2022-12-11T02:33:08.758Z,-2.16
2022-12-11T02:38:21.059Z,-2.27
2022-12-11T02:43:28.787Z,-2.36
2022-12-11T02:48:37.624Z,-2.49
2022-12-11T02:53:46.452Z,-2.55
2022-12-11T02:58:59.123Z,-2.56
2022-12-11T03:04:06.231Z,-2.56
2022-12-11T03:09:14.894Z,-2.59
2022-12-11T03:14:22.150Z,-2.67
2022-12-11T03:19:36.688Z,-2.76
2022-12-11T03:24:47.665Z,-2.85
2022-12-11T03:30:00.040Z,-2.90
2022-12-11T03:35:15.137Z,-2.89
2022-12-11T03:40:26.081Z,-2.83
2022-12-11T03:45:34.312Z,-2.78
2022-12-11T03:50:43.351Z,-2.73
2022-12-11T03:55:52.842Z,-2.73
2022-12-11T04:00:59.872Z,-2.80
2022-12-11T04:06:07.112Z,-2.91
2022-12-11T04:11:31.805Z,-3.01
2022-12-11T04:16:38.862Z,-3.11
2022-12-11T04:22:03.575Z,-3.13
2022-12-11T04:27:10.699Z,-3.09
2022-12-11T04:32:17.660Z,-3.01
2022-12-11T04:37:24.638Z,-2.95
2022-12-11T04:42:31.696Z,-2.97
2022-12-11T04:47:39.698Z,-3.06
2022-12-11T04:52:47.228Z,-3.19
2022-12-11T04:57:54.514Z,-3.31
2022-12-11T05:03:01.697Z,-3.36
2022-12-11T05:08:09.535Z,-3.42
2022-12-11T05:13:14.965Z,-3.43
2022-12-11T05:18:22.749Z,-3.41
2022-12-11T05:23:30.997Z,-3.37
2022-12-11T05:28:39.906Z,-3.35
2022-12-11T05:33:47.931Z,-3.35
2022-12-11T05:38:55.477Z,-3.35
2022-12-11T05:44:02.901Z,-3.40
2022-12-11T05:49:11.803Z,-3.45
2022-12-11T05:54:19.113Z,-3.48
2022-12-11T05:59:26.427Z,-3.50
2022-12-11T06:04:33.404Z,-3.47
2022-12-11T06:09:40.452Z,-3.41
2022-12-11T06:14:47.517Z,-3.31
2022-12-11T06:19:54.625Z,-3.22
2022-12-11T06:25:01.756Z,-3.19
2022-12-11T06:30:11.239Z,-3.20
2022-12-11T06:35:18.583Z,-3.21
2022-12-11T06:40:25.633Z,-3.26
2022-12-11T06:45:32.781Z,-3.36
2022-12-11T06:50:40.873Z,-3.46
2022-12-11T06:55:47.926Z,-3.53
2022-12-11T07:00:54.988Z,-3.55
2022-12-11T07:06:04.488Z,-3.51
2022-12-11T07:11:13.716Z,-3.47
2022-12-11T07:16:21.724Z,-3.46
2022-12-11T07:21:28.789Z,-3.48
2022-12-11T07:26:36.060Z,-3.52
2022-12-11T07:31:43.219Z,-3.58
2022-12-11T07:36:50.299Z,-3.61
2022-12-11T07:41:57.371Z,-3.61
2022-12-11T07:47:04.437Z,-3.54
2022-12-11T07:52:11.543Z,-3.45
2022-12-11T07:57:18.685Z,-3.36
2022-12-11T08:02:25.720Z,-3.33
2022-12-11T08:07:34.741Z,-3.36
2022-12-11T08:12:41.732Z,-3.41
2022-12-11T08:17:48.759Z,-3.45
2022-12-11T08:22:59.150Z,-3.51
2022-12-11T08:28:06.929Z,-3.57
2022-12-11T08:33:13.975Z,-3.58
2022-12-11T08:38:25.444Z,-3.57
2022-12-11T08:43:34.501Z,-3.55
2022-12-11T08:48:43.533Z,-3.52
2022-12-11T08:53:52.615Z,-3.55
2022-12-11T08:59:02.917Z,-3.64
2022-12-11T09:04:09.892Z,-3.70
2022-12-11T09:09:16.990Z,-3.72
2022-12-11T09:14:24.017Z,-3.70
2022-12-11T09:19:32.510Z,-3.61
2022-12-11T09:24:39.897Z,-3.49
2022-12-11T09:29:47.002Z,-3.41
2022-12-11T09:34:54.650Z,-3.32
2022-12-11T09:40:05.564Z,-3.22
2022-12-11T09:45:17.885Z,-3.13
2022-12-11T09:50:33.930Z,-3.05
2022-12-11T09:55:50.416Z,-3.07
2022-12-11T10:01:04.511Z,-3.10
2022-12-11T10:06:20.518Z,-3.09
2022-12-11T10:11:43.410Z,-3.06
2022-12-11T10:16:54.073Z,-3.03
2022-12-11T10:22:04.509Z,-2.99
2022-12-11T10:27:20.087Z,-3.07
2022-12-11T10:32:33.650Z,-3.17
2022-12-11T10:37:42.330Z,-3.26
2022-12-11T10:42:57.263Z,-3.31
2022-12-11T10:48:29.101Z,-3.32
2022-12-11T10:54:23.679Z,-3.23
2022-12-11T10:59:45.592Z,-3.06
2022-12-11T11:04:59.404Z,-2.92
2022-12-11T11:10:19.223Z,-2.80
2022-12-11T11:15:29.753Z,-2.75
2022-12-11T11:20:37.293Z,-2.76
2022-12-11T11:25:54.065Z,-2.79
2022-12-11T11:31:05.248Z,-2.81
2022-12-11T11:36:24.088Z,-2.81
2022-12-11T11:41:42.191Z,-2.79
2022-12-11T11:46:58.367Z,-2.69
2022-12-11T11:52:13.899Z,-2.62
2022-12-11T11:57:34.068Z,-2.60
2022-12-11T12:02:42.235Z,-2.63
2022-12-11T12:08:00.094Z,-2.67
2022-12-11T12:13:47.663Z,-2.67
2022-12-11T12:18:53.852Z,-2.68
2022-12-11T12:24:12.309Z,-2.69
2022-12-11T12:29:30.302Z,-2.68
2022-12-11T12:34:52.915Z,-2.61
2022-12-11T12:40:15.965Z,-2.56
2022-12-11T12:45:30.322Z,-2.56
2022-12-11T12:50:43.018Z,-2.59
2022-12-11T12:55:51.511Z,-2.60
2022-12-11T13:01:09.983Z,-2.61
2022-12-11T13:06:17.210Z,-2.64
2022-12-11T13:11:35.349Z,-2.68
2022-12-11T13:16:43.944Z,-2.64
2022-12-11T13:22:00.482Z,-2.56
2022-12-11T13:27:23.988Z,-2.49
2022-12-11T13:32:34.388Z,-2.45
2022-12-11T13:37:44.662Z,-2.47
2022-12-11T13:42:56.103Z,-2.52
2022-12-11T13:48:06.062Z,-2.58
2022-12-11T13:53:19.305Z,-2.67
2022-12-11T13:58:26.828Z,-2.72
2022-12-11T14:03:35.273Z,-2.74
2022-12-11T14:08:46.374Z,-2.72
2022-12-11T14:13:53.428Z,-2.70
2022-12-11T14:19:04.959Z,-2.71
2022-12-11T14:24:15.446Z,-2.73
2022-12-11T14:29:30.845Z,-2.77
2022-12-11T14:34:43.697Z,-2.83
2022-12-11T14:39:57.408Z,-2.85
2022-12-11T14:45:08.628Z,-2.82
2022-12-11T14:50:22.648Z,-2.79
2022-12-11T14:55:33.291Z,-2.78
2022-12-11T15:00:40.748Z,-2.79
2022-12-11T15:05:55.002Z,-2.80
2022-12-11T15:11:09.380Z,-2.82
2022-12-11T15:16:17.663Z,-2.85
2022-12-11T15:21:32.612Z,-2.88
2022-12-11T15:26:45.325Z,-2.87
2022-12-11T15:32:02.540Z,-2.80
2022-12-11T15:37:20.530Z,-2.68
2022-12-11T15:42:33.876Z,-2.58
2022-12-11T15:47:41.049Z,-2.52
2022-12-11T15:52:48.763Z,-2.51
2022-12-11T15:57:58.691Z,-2.50
2022-12-11T16:03:05.902Z,-2.54
2022-12-11T16:08:16.373Z,-2.59
2022-12-11T16:13:23.699Z,-2.62
2022-12-11T16:18:33.719Z,-2.60
2022-12-11T16:23:40.794Z,-2.55
2022-12-11T16:28:47.864Z,-2.48
2022-12-11T16:33:54.931Z,-2.46
2022-12-11T16:39:02.315Z,-2.47
2022-12-11T16:44:10.708Z,-2.49
2022-12-11T16:49:17.779Z,-2.52
2022-12-11T16:54:24.868Z,-2.55
2022-12-11T16:59:36.930Z,-2.55
2022-12-11T17:04:47.036Z,-2.48
2022-12-11T17:09:57.736Z,-2.37
2022-12-11T17:15:05.279Z,-2.22
2022-12-11T17:20:14.233Z,-2.10
2022-12-11T17:25:22.676Z,-2.04
2022-12-11T17:30:29.730Z,-2.00
2022-12-11T17:35:36.951Z,-1.99
2022-12-11T17:40:45.267Z,-1.99
2022-12-11T17:45:53.478Z,-1.96
2022-12-11T17:51:03.844Z,-1.88
2022-12-11T17:56:12.412Z,-1.74
2022-12-11T18:01:18.317Z,-1.56
2022-12-11T18:06:25.336Z,-1.44
2022-12-11T18:11:32.484Z,-1.40
2022-12-11T18:16:40.141Z,-1.41
2022-12-11T18:21:47.470Z,-1.46
2022-12-11T18:26:54.643Z,-1.54
2022-12-11T18:32:01.901Z,-1.59
2022-12-11T18:37:09.315Z,-1.62
2022-12-11T18:42:33.346Z,-1.60
2022-12-11T18:47:41.447Z,-1.52
2022-12-11T18:52:49.064Z,-1.47
2022-12-11T18:57:56.406Z,-1.43
2022-12-11T19:03:03.595Z,-1.44
2022-12-11T19:08:11.248Z,-1.50
2022-12-11T19:13:18.578Z,-1.58
2022-12-11T19:18:26.914Z,-1.66
2022-12-11T19:23:33.973Z,-1.68
2022-12-11T19:28:41.587Z,-1.63
2022-12-11T19:33:49.164Z,-1.53
2022-12-11T19:39:01.489Z,-1.44
2022-12-11T19:44:09.399Z,-1.40
2022-12-11T19:49:16.496Z,-1.41
2022-12-11T19:54:23.604Z,-1.44
2022-12-11T19:59:30.634Z,-1.48
2022-12-11T20:04:37.852Z,-1.52
2022-12-11T20:09:44.924Z,-1.52
2022-12-11T20:14:52.006Z,-1.46
2022-12-11T20:19:59.183Z,-1.35
2022-12-11T20:25:07.597Z,-1.25
2022-12-11T20:30:15.716Z,-1.23
2022-12-11T20:35:22.903Z,-1.22
2022-12-11T20:40:29.937Z,-1.25
2022-12-11T20:45:37.069Z,-1.30
2022-12-11T20:50:44.226Z,-1.37
2022-12-11T20:55:51.346Z,-1.41
2022-12-11T21:00:58.598Z,-1.40
2022-12-11T21:06:05.896Z,-1.35
2022-12-11T21:11:12.956Z,-1.28
2022-12-11T21:16:20.345Z,-1.26
2022-12-11T21:21:28.097Z,-1.28
2022-12-11T21:26:35.135Z,-1.33
2022-12-11T21:31:42.315Z,-1.38
2022-12-11T21:36:54.933Z,-1.42
2022-12-11T21:42:03.517Z,-1.43
2022-12-11T21:47:10.668Z,-1.41
2022-12-11T21:52:17.965Z,-1.35
2022-12-11T21:57:26.739Z,-1.29
2022-12-11T22:02:40.449Z,-1.28
2022-12-11T22:07:48.354Z,-1.28
2022-12-11T22:12:55.613Z,-1.32
2022-12-11T22:18:02.729Z,-1.36
2022-12-11T22:23:11.535Z,-1.37
2022-12-11T22:28:18.623Z,-1.32
2022-12-11T22:33:25.899Z,-1.21
2022-12-11T22:38:32.942Z,-1.14
2022-12-11T22:43:40.012Z,-1.08
2022-12-11T22:48:47.033Z,-1.06
2022-12-11T22:53:54.529Z,-1.10
2022-12-11T22:59:01.548Z,-1.15
2022-12-11T23:04:08.960Z,-1.21
2022-12-11T23:09:16.041Z,-1.23
2022-12-11T23:14:23.376Z,-1.20
2022-12-11T23:19:30.601Z,-1.14
2022-12-11T23:24:37.651Z,-1.06
2022-12-11T23:29:44.747Z,-1.02
2022-12-11T23:34:51.784Z,-1.01
2022-12-11T23:39:59.002Z,-1.03
2022-12-11T23:45:07.054Z,-1.08
2022-12-11T23:50:12.555Z,-1.13
2022-12-11T23:55:19.710Z,-1.20
